createdAt,value
2023-02-04T00:00:58.743Z,5.87
2023-02-04T00:06:03.391Z,7.47
2023-02-04T00:11:06.864Z,5.47
2023-02-04T00:16:10.263Z,4.87
2023-02-04T00:21:14.811Z,7.17
2023-02-04T00:26:17.930Z,7.90
2023-02-04T00:31:21.145Z,8.37
2023-02-04T00:36:25.626Z,5.73
2023-02-04T00:41:28.735Z,9.17
2023-02-04T00:46:31.830Z,9.37
2023-02-04T00:51:36.365Z,7.17
2023-02-04T00:56:39.460Z,6.30
2023-02-04T01:01:42.557Z,5.60
2023-02-04T01:06:47.094Z,6.17
2023-02-04T01:11:50.207Z,6.90
2023-02-04T01:16:53.290Z,7.90
2023-02-04T01:21:57.778Z,7.17
2023-02-04T01:27:00.887Z,6.80
2023-02-04T01:32:04.046Z,9.93
2023-02-04T01:37:08.534Z,6.97
2023-02-04T01:42:12.689Z,6.50
2023-02-04T01:47:16.024Z,7.40
2023-02-04T01:52:20.787Z,7.30
2023-02-04T02:02:45.597Z,9.60
2023-02-04T02:07:52.228Z,6.47
2023-02-04T02:12:56.677Z,6.83
2023-02-04T02:18:00.195Z,7.13
2023-02-04T02:23:12.571Z,7.67
2023-02-04T02:28:19.883Z,7.27
2023-02-04T02:33:23.090Z,5.80
2023-02-04T02:38:26.350Z,7.20
2023-02-04T02:43:31.394Z,9.50
2023-02-04T02:48:34.821Z,10.00
2023-02-04T02:53:38.087Z,9.20
2023-02-04T02:58:42.785Z,5.70
2023-02-04T03:03:48.454Z,6.80
2023-02-04T03:08:55.233Z,8.90
2023-02-04T03:14:02.392Z,5.37
2023-02-04T03:19:07.559Z,10.33
2023-02-04T03:24:11.073Z,6.17
2023-02-04T03:29:15.626Z,7.70
2023-02-04T03:34:18.762Z,9.10
2023-02-04T03:39:21.916Z,9.07
2023-02-04T03:44:27.141Z,6.77
2023-02-04T03:49:32.232Z,7.40
2023-02-04T03:54:35.414Z,8.37
2023-02-04T03:59:40.096Z,8.27
2023-02-04T04:04:43.174Z,10.17
2023-02-04T04:09:46.283Z,8.53
2023-02-04T04:14:50.890Z,6.70
2023-02-04T04:19:54.016Z,5.47
2023-02-04T04:24:57.204Z,8.93
2023-02-04T04:30:01.761Z,6.87
2023-02-04T04:35:05.178Z,9.03
2023-02-04T04:40:10.115Z,5.67
2023-02-04T04:45:15.421Z,8.37
2023-02-04T04:50:18.657Z,7.43
2023-02-04T04:55:21.780Z,7.93
2023-02-04T05:00:26.571Z,8.43
2023-02-04T05:05:29.765Z,8.30
2023-02-04T05:10:33.093Z,8.00
2023-02-04T05:15:37.948Z,9.03
2023-02-04T05:20:41.108Z,7.63
2023-02-04T05:25:44.298Z,6.70
2023-02-04T05:30:48.886Z,7.33
2023-02-04T05:35:52.123Z,6.27
2023-02-04T05:40:55.316Z,7.80
2023-02-04T05:45:59.921Z,6.43
2023-02-04T05:51:03.172Z,8.00
2023-02-04T05:56:06.885Z,6.20
2023-02-04T06:01:21.366Z,6.17
2023-02-04T06:06:24.531Z,8.63
2023-02-04T06:11:27.703Z,6.73
2023-02-04T06:16:32.237Z,6.47
2023-02-04T06:21:35.412Z,7.87
2023-02-04T06:26:38.579Z,7.60
2023-02-04T06:31:44.644Z,7.63
2023-02-04T06:36:47.920Z,5.03
2023-02-04T06:41:51.101Z,6.63
2023-02-04T06:46:55.597Z,7.90
2023-02-04T06:51:58.731Z,7.07
2023-02-04T06:57:06.725Z,6.67
2023-02-04T07:02:12.728Z,9.23
2023-02-04T07:07:15.934Z,7.40
2023-02-04T07:12:19.047Z,8.27
2023-02-04T07:17:24.515Z,7.10
2023-02-04T07:22:27.666Z,6.67
2023-02-04T07:27:30.968Z,8.23
2023-02-04T07:32:35.453Z,7.63
2023-02-04T07:37:38.538Z,4.93
2023-02-04T07:42:41.742Z,7.23
2023-02-04T07:47:46.258Z,6.73
2023-02-04T07:52:49.523Z,6.70
2023-02-04T07:57:52.665Z,6.73
2023-02-04T08:02:57.278Z,4.80
2023-02-04T08:08:02.044Z,1.00
2023-02-04T08:13:05.346Z,1.00
2023-02-04T08:18:10.838Z,0.87
2023-02-04T08:23:14.008Z,0.60
2023-02-04T08:28:17.217Z,0.67
2023-02-04T08:33:22.312Z,0.90
2023-02-04T08:38:25.414Z,0.67
2023-02-04T08:43:29.658Z,0.67
2023-02-04T08:48:35.192Z,0.60
2023-02-04T08:53:40.310Z,1.00
2023-02-04T08:58:43.483Z,1.17
2023-02-04T09:03:47.999Z,2.50
2023-02-04T09:08:52.175Z,1.17
2023-02-04T09:13:56.691Z,1.57
2023-02-04T09:19:01.912Z,1.10
2023-02-04T09:24:15.901Z,1.73
2023-02-04T09:29:19.276Z,1.03
2023-02-04T09:34:23.768Z,1.97
2023-02-04T09:39:26.899Z,1.10
2023-02-04T09:44:30.630Z,0.87
2023-02-04T09:49:35.116Z,1.37
2023-02-04T09:54:39.196Z,1.07
2023-02-04T09:59:43.686Z,1.10
2023-02-04T10:04:48.265Z,1.23
2023-02-04T10:09:51.990Z,3.90
2023-02-04T10:14:55.174Z,1.57
2023-02-04T10:19:59.733Z,1.47
2023-02-04T10:25:02.973Z,1.20
2023-02-04T10:30:07.117Z,1.10
2023-02-04T10:35:17.221Z,1.70
2023-02-04T10:40:32.575Z,2.67
2023-02-04T10:45:35.834Z,2.17
2023-02-04T10:50:40.270Z,0.90
2023-02-04T10:55:44.327Z,1.00
2023-02-04T11:00:47.448Z,0.70
2023-02-04T11:05:52.437Z,0.73
2023-02-04T11:10:59.090Z,0.80
2023-02-04T11:16:25.008Z,0.67
2023-02-04T11:21:42.829Z,0.77
2023-02-04T11:26:47.520Z,0.80
2023-02-04T11:31:59.631Z,1.00
2023-02-04T11:37:19.324Z,0.67
2023-02-04T11:42:24.987Z,1.20
2023-02-04T11:47:29.308Z,0.90
2023-02-04T11:52:37.085Z,0.80
2023-02-04T11:57:41.311Z,0.60
2023-02-04T12:02:48.199Z,0.63
2023-02-04T12:07:52.770Z,0.60
2023-02-04T12:12:58.291Z,0.80
2023-02-04T12:18:07.311Z,0.70
2023-02-04T12:23:11.775Z,1.90
2023-02-04T12:28:14.978Z,0.70
2023-02-04T12:33:18.244Z,0.77
2023-02-04T12:38:22.712Z,0.87
2023-02-04T12:43:28.321Z,0.70
2023-02-04T12:48:31.740Z,0.70
2023-02-04T12:53:36.304Z,1.03
2023-02-04T12:58:39.396Z,0.70
2023-02-04T13:03:42.575Z,0.70
2023-02-04T13:08:47.066Z,0.70
2023-02-04T13:13:50.155Z,1.03
2023-02-04T13:18:53.498Z,0.60
2023-02-04T13:23:59.765Z,0.60
2023-02-04T13:29:02.871Z,1.23
2023-02-04T13:34:05.986Z,1.20
2023-02-04T13:39:10.586Z,2.00
2023-02-04T13:44:13.903Z,1.63
2023-02-04T13:49:17.034Z,1.10
2023-02-04T13:54:21.600Z,1.90
2023-02-04T13:59:24.708Z,0.90
2023-02-04T14:04:28.182Z,1.27
2023-02-04T14:09:32.673Z,0.70
2023-02-04T14:14:35.803Z,0.70
2023-02-04T14:19:38.943Z,0.80
2023-02-04T14:24:44.342Z,1.77
2023-02-04T14:29:47.402Z,1.53
2023-02-04T14:34:50.456Z,1.00
2023-02-04T14:39:56.126Z,1.17
2023-02-04T14:44:59.312Z,0.80
2023-02-04T14:50:02.419Z,0.90
2023-02-04T14:55:08.840Z,1.73
2023-02-04T15:00:13.170Z,2.60
2023-02-04T15:05:16.773Z,1.10
2023-02-04T15:10:30.599Z,0.90
2023-02-04T15:15:34.620Z,0.80
2023-02-04T15:20:37.819Z,0.80
2023-02-04T15:25:42.324Z,0.80
2023-02-04T15:30:45.484Z,0.80
2023-02-04T15:35:48.729Z,0.70
2023-02-04T15:40:53.229Z,0.80
2023-02-04T15:45:56.429Z,0.80
2023-02-04T15:50:59.646Z,0.80
2023-02-04T15:56:04.345Z,1.33
2023-02-04T16:01:07.523Z,1.73
2023-02-04T16:06:10.620Z,1.43
2023-02-04T16:11:15.097Z,1.50
2023-02-04T16:16:18.420Z,1.50
2023-02-04T16:21:21.685Z,1.10
2023-02-04T16:26:26.179Z,1.10
2023-02-04T16:31:29.425Z,2.20
2023-02-04T16:36:32.676Z,3.20
2023-02-04T16:41:37.202Z,5.13
2023-02-04T16:46:40.557Z,3.20
2023-02-04T16:51:43.755Z,3.60
2023-02-04T16:56:48.360Z,1.60
2023-02-04T17:01:51.440Z,1.30
2023-02-04T17:06:54.913Z,2.70
2023-02-04T17:11:59.434Z,6.07
2023-02-04T17:17:03.115Z,9.53
2023-02-04T17:22:06.244Z,5.00
2023-02-04T17:27:10.928Z,3.47
2023-02-04T17:32:14.070Z,2.67
2023-02-04T17:37:17.167Z,1.47
2023-02-04T17:42:22.013Z,3.73
2023-02-04T17:47:25.155Z,12.67
2023-02-04T17:52:28.435Z,12.93
2023-02-04T17:57:33.200Z,10.00
2023-02-04T18:02:36.441Z,7.03
2023-02-04T18:07:39.807Z,7.80
2023-02-04T18:12:44.296Z,7.77
2023-02-04T18:17:47.528Z,9.73
2023-02-04T18:22:54.618Z,8.07
2023-02-04T18:28:02.904Z,7.10
2023-02-04T18:33:15.690Z,6.17
2023-02-04T18:38:25.282Z,5.87
2023-02-04T18:43:33.839Z,6.60
2023-02-04T18:49:01.692Z,4.90
2023-02-04T18:54:36.001Z,4.10
2023-02-04T18:59:41.244Z,3.20
2023-02-04T19:04:45.329Z,8.50
2023-02-04T19:09:48.399Z,7.60
2023-02-04T19:14:53.017Z,9.73
2023-02-04T19:19:57.734Z,5.17
2023-02-04T19:25:22.270Z,5.47
2023-02-04T19:30:47.351Z,3.90
2023-02-04T19:35:50.799Z,5.80
2023-02-04T19:40:54.035Z,6.63
2023-02-04T19:45:58.624Z,9.40
2023-02-04T19:51:08.767Z,18.50
2023-02-04T19:56:29.354Z,20.33
2023-02-04T20:01:34.703Z,21.70
2023-02-04T20:06:38.023Z,8.93
2023-02-04T20:12:00.089Z,11.57
2023-02-04T20:17:23.393Z,11.83
2023-02-04T20:22:48.229Z,11.27
2023-02-04T20:27:57.210Z,9.33
2023-02-04T20:33:23.105Z,9.07
2023-02-04T20:38:26.344Z,7.50
2023-02-04T20:43:29.566Z,5.57
2023-02-04T20:48:36.705Z,5.97
2023-02-04T20:53:41.116Z,7.13
2023-02-04T20:58:46.275Z,7.60
2023-02-04T21:03:51.342Z,7.33
2023-02-04T21:08:56.253Z,7.93
2023-02-04T21:13:59.715Z,7.27
2023-02-04T21:19:04.325Z,8.67
2023-02-04T21:24:08.363Z,7.93
2023-02-04T21:29:11.877Z,7.03
2023-02-04T21:34:16.680Z,6.90
2023-02-04T21:39:21.116Z,5.90
2023-02-04T21:44:24.245Z,5.20
2023-02-04T21:49:28.806Z,5.00
2023-02-04T21:54:32.158Z,5.30
2023-02-04T21:59:35.725Z,5.27
2023-02-04T22:04:40.267Z,9.13
2023-02-04T22:09:43.386Z,11.97
2023-02-04T22:14:46.713Z,9.40
2023-02-04T22:19:51.201Z,7.77
2023-02-04T22:24:54.423Z,9.53
2023-02-04T22:29:58.092Z,8.17
2023-02-04T22:35:02.838Z,7.23
2023-02-04T22:40:07.494Z,6.40
2023-02-04T22:45:11.406Z,6.83
2023-02-04T22:50:16.070Z,6.17
2023-02-04T22:55:19.295Z,6.20
2023-02-04T23:00:22.522Z,6.10
2023-02-04T23:05:27.208Z,5.97
2023-02-04T23:10:30.462Z,7.30
2023-02-04T23:15:33.805Z,5.53
2023-02-04T23:20:40.658Z,6.07
2023-02-04T23:25:43.815Z,6.40
2023-02-04T23:30:47.970Z,5.70
2023-02-04T23:35:52.823Z,6.80
2023-02-04T23:40:57.158Z,5.80
2023-02-04T23:46:00.394Z,5.73
2023-02-04T23:51:04.993Z,8.00
2023-02-04T23:56:08.385Z,6.33
